sensor_id;sensor_type;location;lat;lon;timestamp;temperature;humidity
51029;DHT22;37054;52.054;8.600;2022-08-19T00:01:35;24.30;53.70
51029;DHT22;37054;52.054;8.600;2022-08-19T00:04:02;24.20;53.70
51029;DHT22;37054;52.054;8.600;2022-08-19T00:06:33;24.20;53.70
51029;DHT22;37054;52.054;8.600;2022-08-19T00:08:59;24.20;53.80
51029;DHT22;37054;52.054;8.600;2022-08-19T00:11:28;24.10;53.80
51029;DHT22;37054;52.054;8.600;2022-08-19T00:13:55;24.10;53.80
51029;DHT22;37054;52.054;8.600;2022-08-19T00:16:22;24.10;53.80
51029;DHT22;37054;52.054;8.600;2022-08-19T00:18:48;24.00;53.80
51029;DHT22;37054;52.054;8.600;2022-08-19T00:21:14;24.00;54.00
51029;DHT22;37054;52.054;8.600;2022-08-19T00:23:40;24.00;54.00
51029;DHT22;37054;52.054;8.600;2022-08-19T00:26:06;23.90;54.00
51029;DHT22;37054;52.054;8.600;2022-08-19T00:28:32;23.80;54.10
51029;DHT22;37054;52.054;8.600;2022-08-19T00:30:58;23.80;54.20
51029;DHT22;37054;52.054;8.600;2022-08-19T00:33:24;23.80;54.20
51029;DHT22;37054;52.054;8.600;2022-08-19T00:35:50;23.80;54.10
51029;DHT22;37054;52.054;8.600;2022-08-19T00:38:15;23.80;54.20
51029;DHT22;37054;52.054;8.600;2022-08-19T00:40:45;23.70;54.20
51029;DHT22;37054;52.054;8.600;2022-08-19T00:43:12;23.70;54.10
51029;DHT22;37054;52.054;8.600;2022-08-19T00:45:38;23.60;54.20
51029;DHT22;37054;52.054;8.600;2022-08-19T00:48:06;23.60;54.30
51029;DHT22;37054;52.054;8.600;2022-08-19T00:50:32;23.50;54.40
51029;DHT22;37054;52.054;8.600;2022-08-19T00:52:58;23.50;54.30
51029;DHT22;37054;52.054;8.600;2022-08-19T00:55:26;23.50;54.40
51029;DHT22;37054;52.054;8.600;2022-08-19T00:58:04;23.50;54.40
51029;DHT22;37054;52.054;8.600;2022-08-19T01:00:32;23.50;54.60
51029;DHT22;37054;52.054;8.600;2022-08-19T01:03:00;23.40;54.50
51029;DHT22;37054;52.054;8.600;2022-08-19T01:05:27;23.40;54.50
51029;DHT22;37054;52.054;8.600;2022-08-19T01:07:58;23.40;54.40
51029;DHT22;37054;52.054;8.600;2022-08-19T01:10:25;23.40;54.30
51029;DHT22;37054;52.054;8.600;2022-08-19T01:12:51;23.40;54.20
51029;DHT22;37054;52.054;8.600;2022-08-19T01:15:19;23.40;54.20
51029;DHT22;37054;52.054;8.600;2022-08-19T01:17:46;23.30;54.10
51029;DHT22;37054;52.054;8.600;2022-08-19T01:20:17;23.30;54.40
51029;DHT22;37054;52.054;8.600;2022-08-19T01:22:47;23.30;54.50
51029;DHT22;37054;52.054;8.600;2022-08-19T01:25:14;23.30;54.80
51029;DHT22;37054;52.054;8.600;2022-08-19T01:27:41;23.30;54.70
51029;DHT22;37054;52.054;8.600;2022-08-19T01:30:09;23.20;54.70
51029;DHT22;37054;52.054;8.600;2022-08-19T01:32:35;23.20;54.80
51029;DHT22;37054;52.054;8.600;2022-08-19T01:35:02;23.20;54.80
51029;DHT22;37054;52.054;8.600;2022-08-19T01:37:27;23.30;54.70
51029;DHT22;37054;52.054;8.600;2022-08-19T01:39:54;23.30;54.60
51029;DHT22;37054;52.054;8.600;2022-08-19T01:42:19;23.30;54.40
51029;DHT22;37054;52.054;8.600;2022-08-19T01:44:45;23.30;54.30
51029;DHT22;37054;52.054;8.600;2022-08-19T01:47:10;23.20;54.30
51029;DHT22;37054;52.054;8.600;2022-08-19T01:49:36;23.20;54.30
51029;DHT22;37054;52.054;8.600;2022-08-19T01:52:02;23.10;54.40
51029;DHT22;37054;52.054;8.600;2022-08-19T01:54:28;23.10;54.90
51029;DHT22;37054;52.054;8.600;2022-08-19T01:56:55;23.00;55.30
51029;DHT22;37054;52.054;8.600;2022-08-19T01:59:23;22.90;55.50
51029;DHT22;37054;52.054;8.600;2022-08-19T02:01:49;22.90;55.40
51029;DHT22;37054;52.054;8.600;2022-08-19T02:04:14;22.80;55.50
51029;DHT22;37054;52.054;8.600;2022-08-19T02:06:41;22.80;55.40
51029;DHT22;37054;52.054;8.600;2022-08-19T02:09:06;22.80;55.60
51029;DHT22;37054;52.054;8.600;2022-08-19T02:14:08;22.70;55.40
51029;DHT22;37054;52.054;8.600;2022-08-19T02:16:34;22.70;55.40
51029;DHT22;37054;52.054;8.600;2022-08-19T02:19:00;22.60;55.50
51029;DHT22;37054;52.054;8.600;2022-08-19T02:21:26;22.60;55.40
51029;DHT22;37054;52.054;8.600;2022-08-19T02:23:52;22.60;55.40
51029;DHT22;37054;52.054;8.600;2022-08-19T02:26:17;22.60;55.50
51029;DHT22;37054;52.054;8.600;2022-08-19T02:28:43;22.50;55.50
51029;DHT22;37054;52.054;8.600;2022-08-19T02:31:13;22.60;55.40
51029;DHT22;37054;52.054;8.600;2022-08-19T02:33:40;22.50;55.40
51029;DHT22;37054;52.054;8.600;2022-08-19T02:36:06;22.50;55.40
51029;DHT22;37054;52.054;8.600;2022-08-19T02:38:32;22.50;55.40
51029;DHT22;37054;52.054;8.600;2022-08-19T02:40:59;22.50;55.50
51029;DHT22;37054;52.054;8.600;2022-08-19T02:43:25;22.50;55.50
51029;DHT22;37054;52.054;8.600;2022-08-19T02:45:51;22.50;55.60
51029;DHT22;37054;52.054;8.600;2022-08-19T02:48:17;22.50;55.60
51029;DHT22;37054;52.054;8.600;2022-08-19T02:50:44;22.60;55.60
51029;DHT22;37054;52.054;8.600;2022-08-19T02:53:10;22.50;55.60
51029;DHT22;37054;52.054;8.600;2022-08-19T02:55:36;22.60;55.70
51029;DHT22;37054;52.054;8.600;2022-08-19T02:58:07;22.50;55.80
51029;DHT22;37054;52.054;8.600;2022-08-19T03:00:32;22.50;55.90
51029;DHT22;37054;52.054;8.600;2022-08-19T03:02:58;22.50;56.00
51029;DHT22;37054;52.054;8.600;2022-08-19T03:05:23;22.50;55.90
51029;DHT22;37054;52.054;8.600;2022-08-19T03:07:49;22.40;55.80
51029;DHT22;37054;52.054;8.600;2022-08-19T03:10:14;22.40;55.70
51029;DHT22;37054;52.054;8.600;2022-08-19T03:12:40;22.40;55.60
51029;DHT22;37054;52.054;8.600;2022-08-19T03:15:06;22.30;55.60
51029;DHT22;37054;52.054;8.600;2022-08-19T03:17:33;22.30;55.60
51029;DHT22;37054;52.054;8.600;2022-08-19T03:19:58;22.30;55.60
51029;DHT22;37054;52.054;8.600;2022-08-19T03:22:24;22.30;55.60
51029;DHT22;37054;52.054;8.600;2022-08-19T03:24:50;22.30;55.70
51029;DHT22;37054;52.054;8.600;2022-08-19T03:27:16;22.30;55.80
51029;DHT22;37054;52.054;8.600;2022-08-19T03:29:43;22.20;55.80
51029;DHT22;37054;52.054;8.600;2022-08-19T03:32:11;22.30;55.90
51029;DHT22;37054;52.054;8.600;2022-08-19T03:34:37;22.20;56.10
51029;DHT22;37054;52.054;8.600;2022-08-19T03:37:06;22.20;56.00
51029;DHT22;37054;52.054;8.600;2022-08-19T03:39:32;22.10;56.00
51029;DHT22;37054;52.054;8.600;2022-08-19T03:41:57;22.10;56.00
51029;DHT22;37054;52.054;8.600;2022-08-19T03:44:27;22.10;56.00
51029;DHT22;37054;52.054;8.600;2022-08-19T03:46:56;22.10;56.00
51029;DHT22;37054;52.054;8.600;2022-08-19T03:49:22;22.00;56.10
51029;DHT22;37054;52.054;8.600;2022-08-19T03:51:49;22.00;56.10
51029;DHT22;37054;52.054;8.600;2022-08-19T03:54:17;22.00;56.30
51029;DHT22;37054;52.054;8.600;2022-08-19T03:56:43;22.00;56.40
51029;DHT22;37054;52.054;8.600;2022-08-19T03:59:10;21.90;56.40
51029;DHT22;37054;52.054;8.600;2022-08-19T04:01:38;21.90;56.60
51029;DHT22;37054;52.054;8.600;2022-08-19T04:04:04;21.80;56.60
51029;DHT22;37054;52.054;8.600;2022-08-19T04:06:31;21.80;56.60
51029;DHT22;37054;52.054;8.600;2022-08-19T04:08:57;21.80;56.70
51029;DHT22;37054;52.054;8.600;2022-08-19T04:11:25;21.80;56.80
51029;DHT22;37054;52.054;8.600;2022-08-19T04:13:51;21.80;56.90
51029;DHT22;37054;52.054;8.600;2022-08-19T04:16:18;21.80;57.10
51029;DHT22;37054;52.054;8.600;2022-08-19T04:18:45;21.70;57.30
51029;DHT22;37054;52.054;8.600;2022-08-19T04:21:18;21.70;57.30
51029;DHT22;37054;52.054;8.600;2022-08-19T04:23:44;21.80;57.40
51029;DHT22;37054;52.054;8.600;2022-08-19T04:26:14;21.80;57.30
51029;DHT22;37054;52.054;8.600;2022-08-19T04:28:39;21.80;57.60
51029;DHT22;37054;52.054;8.600;2022-08-19T04:31:05;21.80;57.60
51029;DHT22;37054;52.054;8.600;2022-08-19T04:33:30;21.80;57.60
51029;DHT22;37054;52.054;8.600;2022-08-19T04:35:56;21.80;57.60
51029;DHT22;37054;52.054;8.600;2022-08-19T04:38:23;21.90;57.50
51029;DHT22;37054;52.054;8.600;2022-08-19T04:40:50;21.80;57.50
51029;DHT22;37054;52.054;8.600;2022-08-19T04:43:35;21.90;57.70
51029;DHT22;37054;52.054;8.600;2022-08-19T04:46:05;21.90;57.70
51029;DHT22;37054;52.054;8.600;2022-08-19T04:48:30;22.00;57.70
51029;DHT22;37054;52.054;8.600;2022-08-19T04:53:22;22.20;57.70
51029;DHT22;37054;52.054;8.600;2022-08-19T04:55:47;22.20;57.60
51029;DHT22;37054;52.054;8.600;2022-08-19T04:58:13;22.30;57.80
51029;DHT22;37054;52.054;8.600;2022-08-19T05:00:46;22.30;57.90
51029;DHT22;37054;52.054;8.600;2022-08-19T05:03:11;22.50;58.00
51029;DHT22;37054;52.054;8.600;2022-08-19T05:05:39;22.70;58.00
51029;DHT22;37054;52.054;8.600;2022-08-19T05:08:05;22.80;58.00
51029;DHT22;37054;52.054;8.600;2022-08-19T05:10:31;22.90;58.10
51029;DHT22;37054;52.054;8.600;2022-08-19T05:12:56;23.10;58.20
51029;DHT22;37054;52.054;8.600;2022-08-19T05:15:22;23.30;58.40
51029;DHT22;37054;52.054;8.600;2022-08-19T05:17:48;23.50;58.40
51029;DHT22;37054;52.054;8.600;2022-08-19T05:20:32;23.80;58.30
51029;DHT22;37054;52.054;8.600;2022-08-19T05:23:19;24.00;58.50
51029;DHT22;37054;52.054;8.600;2022-08-19T05:25:44;24.30;58.70
51029;DHT22;37054;52.054;8.600;2022-08-19T05:28:10;24.60;58.00
51029;DHT22;37054;52.054;8.600;2022-08-19T05:30:35;24.80;57.40
51029;DHT22;37054;52.054;8.600;2022-08-19T05:33:01;25.00;57.80
51029;DHT22;37054;52.054;8.600;2022-08-19T05:35:26;25.40;58.40
51029;DHT22;37054;52.054;8.600;2022-08-19T05:37:53;25.90;58.20
51029;DHT22;37054;52.054;8.600;2022-08-19T05:40:19;26.20;57.70
51029;DHT22;37054;52.054;8.600;2022-08-19T05:42:45;26.70;57.60
51029;DHT22;37054;52.054;8.600;2022-08-19T05:45:11;27.10;57.20
51029;DHT22;37054;52.054;8.600;2022-08-19T05:47:36;27.50;56.40
51029;DHT22;37054;52.054;8.600;2022-08-19T05:50:02;28.00;56.10
51029;DHT22;37054;52.054;8.600;2022-08-19T05:52:28;28.40;55.30
51029;DHT22;37054;52.054;8.600;2022-08-19T05:54:54;28.60;53.70
51029;DHT22;37054;52.054;8.600;2022-08-19T05:57:23;28.70;52.70
51029;DHT22;37054;52.054;8.600;2022-08-19T05:59:48;28.80;52.40
51029;DHT22;37054;52.054;8.600;2022-08-19T06:02:16;29.00;52.50
51029;DHT22;37054;52.054;8.600;2022-08-19T06:04:42;29.30;52.20
51029;DHT22;37054;52.054;8.600;2022-08-19T06:07:10;29.50;51.40
51029;DHT22;37054;52.054;8.600;2022-08-19T06:09:36;29.80;50.80
51029;DHT22;37054;52.054;8.600;2022-08-19T06:12:02;30.10;50.30
51029;DHT22;37054;52.054;8.600;2022-08-19T06:14:31;30.40;49.90
51029;DHT22;37054;52.054;8.600;2022-08-19T06:16:57;30.70;49.50
51029;DHT22;37054;52.054;8.600;2022-08-19T06:19:23;31.00;49.30
51029;DHT22;37054;52.054;8.600;2022-08-19T06:21:50;31.50;48.50
51029;DHT22;37054;52.054;8.600;2022-08-19T06:24:18;31.90;47.80
51029;DHT22;37054;52.054;8.600;2022-08-19T06:26:45;32.30;46.90
51029;DHT22;37054;52.054;8.600;2022-08-19T06:29:11;32.80;45.70
51029;DHT22;37054;52.054;8.600;2022-08-19T06:31:40;33.40;44.90
51029;DHT22;37054;52.054;8.600;2022-08-19T06:34:05;34.00;43.60
51029;DHT22;37054;52.054;8.600;2022-08-19T06:36:35;34.40;42.70
51029;DHT22;37054;52.054;8.600;2022-08-19T06:41:42;35.20;40.10
51029;DHT22;37054;52.054;8.600;2022-08-19T06:44:08;35.50;39.10
51029;DHT22;37054;52.054;8.600;2022-08-19T06:46:35;35.80;38.80
51029;DHT22;37054;52.054;8.600;2022-08-19T06:49:03;36.20;38.50
51029;DHT22;37054;52.054;8.600;2022-08-19T06:51:28;36.50;37.40
51029;DHT22;37054;52.054;8.600;2022-08-19T06:53:56;36.80;36.40
51029;DHT22;37054;52.054;8.600;2022-08-19T06:56:23;37.20;36.00
51029;DHT22;37054;52.054;8.600;2022-08-19T06:58:50;37.40;35.30
51029;DHT22;37054;52.054;8.600;2022-08-19T07:01:17;37.80;34.50
51029;DHT22;37054;52.054;8.600;2022-08-19T07:03:43;38.00;34.30
51029;DHT22;37054;52.054;8.600;2022-08-19T07:06:10;38.30;33.80
51029;DHT22;37054;52.054;8.600;2022-08-19T07:08:36;38.60;33.10
51029;DHT22;37054;52.054;8.600;2022-08-19T07:11:12;39.00;31.60
51029;DHT22;37054;52.054;8.600;2022-08-19T07:13:38;39.20;31.70
51029;DHT22;37054;52.054;8.600;2022-08-19T07:16:08;39.60;31.10
51029;DHT22;37054;52.054;8.600;2022-08-19T07:18:35;39.80;30.20
51029;DHT22;37054;52.054;8.600;2022-08-19T07:21:14;40.00;29.00
51029;DHT22;37054;52.054;8.600;2022-08-19T07:23:41;40.00;28.80
51029;DHT22;37054;52.054;8.600;2022-08-19T07:26:11;40.20;28.60
51029;DHT22;37054;52.054;8.600;2022-08-19T07:28:37;40.40;27.90
51029;DHT22;37054;52.054;8.600;2022-08-19T07:31:11;40.70;27.50
51029;DHT22;37054;52.054;8.600;2022-08-19T07:33:47;40.80;27.60
51029;DHT22;37054;52.054;8.600;2022-08-19T07:36:14;41.10;27.30
51029;DHT22;37054;52.054;8.600;2022-08-19T07:38:51;41.40;27.50
51029;DHT22;37054;52.054;8.600;2022-08-19T07:41:18;41.70;27.10
51029;DHT22;37054;52.054;8.600;2022-08-19T07:43:44;42.10;27.10
51029;DHT22;37054;52.054;8.600;2022-08-19T07:46:11;42.40;25.90
51029;DHT22;37054;52.054;8.600;2022-08-19T07:48:38;42.60;25.90
51029;DHT22;37054;52.054;8.600;2022-08-19T07:51:08;42.80;25.70
51029;DHT22;37054;52.054;8.600;2022-08-19T07:53:35;43.10;25.90
51029;DHT22;37054;52.054;8.600;2022-08-19T07:56:01;43.40;25.70
51029;DHT22;37054;52.054;8.600;2022-08-19T07:58:38;43.70;25.30
51029;DHT22;37054;52.054;8.600;2022-08-19T08:01:04;44.00;24.80
51029;DHT22;37054;52.054;8.600;2022-08-19T08:08:41;44.70;24.00
51029;DHT22;37054;52.054;8.600;2022-08-19T08:11:11;44.80;23.50
51029;DHT22;37054;52.054;8.600;2022-08-19T08:13:37;44.80;23.20
51029;DHT22;37054;52.054;8.600;2022-08-19T08:16:02;44.70;23.30
51029;DHT22;37054;52.054;8.600;2022-08-19T08:18:28;44.60;23.10
51029;DHT22;37054;52.054;8.600;2022-08-19T08:20:54;44.40;23.30
51029;DHT22;37054;52.054;8.600;2022-08-19T08:23:20;44.30;23.20
51029;DHT22;37054;52.054;8.600;2022-08-19T08:25:50;44.00;23.10
51029;DHT22;37054;52.054;8.600;2022-08-19T08:28:19;43.90;23.30
51029;DHT22;37054;52.054;8.600;2022-08-19T08:30:45;44.00;23.70
51029;DHT22;37054;52.054;8.600;2022-08-19T08:33:14;44.20;23.50
51029;DHT22;37054;52.054;8.600;2022-08-19T08:35:42;44.30;23.00
51029;DHT22;37054;52.054;8.600;2022-08-19T08:38:07;44.40;22.40
51029;DHT22;37054;52.054;8.600;2022-08-19T08:40:44;44.20;22.00
51029;DHT22;37054;52.054;8.600;2022-08-19T08:43:29;44.00;21.80
51029;DHT22;37054;52.054;8.600;2022-08-19T08:46:02;43.90;22.20
51029;DHT22;37054;52.054;8.600;2022-08-19T08:48:38;44.00;22.20
51029;DHT22;37054;52.054;8.600;2022-08-19T08:56:34;44.20;22.10
51029;DHT22;37054;52.054;8.600;2022-08-19T09:01:48;44.20;22.20
51029;DHT22;37054;52.054;8.600;2022-08-19T09:04:14;44.50;22.50
51029;DHT22;37054;52.054;8.600;2022-08-19T09:06:55;44.90;22.10
51029;DHT22;37054;52.054;8.600;2022-08-19T09:09:40;45.10;21.20
51029;DHT22;37054;52.054;8.600;2022-08-19T09:22:33;44.10;21.00
51029;DHT22;37054;52.054;8.600;2022-08-19T09:25:02;44.00;20.70
51029;DHT22;37054;52.054;8.600;2022-08-19T09:35:12;43.90;20.40
51029;DHT22;37054;52.054;8.600;2022-08-19T09:37:44;43.90;20.40
51029;DHT22;37054;52.054;8.600;2022-08-19T09:45:45;44.40;19.90
51029;DHT22;37054;52.054;8.600;2022-08-19T09:48:28;44.40;20.00
51029;DHT22;37054;52.054;8.600;2022-08-19T09:54:03;44.40;19.40
51029;DHT22;37054;52.054;8.600;2022-08-19T09:56:28;44.30;19.50
51029;DHT22;37054;52.054;8.600;2022-08-19T09:58:54;44.30;19.80
51029;DHT22;37054;52.054;8.600;2022-08-19T10:01:23;44.60;19.60
51029;DHT22;37054;52.054;8.600;2022-08-19T10:03:50;44.80;19.70
51029;DHT22;37054;52.054;8.600;2022-08-19T10:06:18;45.30;19.50
51029;DHT22;37054;52.054;8.600;2022-08-19T10:08:44;45.60;18.90
51029;DHT22;37054;52.054;8.600;2022-08-19T10:11:09;45.90;19.10
51029;DHT22;37054;52.054;8.600;2022-08-19T10:13:35;46.40;18.60
51029;DHT22;37054;52.054;8.600;2022-08-19T10:16:05;46.60;18.60
51029;DHT22;37054;52.054;8.600;2022-08-19T10:18:32;47.00;18.70
51029;DHT22;37054;52.054;8.600;2022-08-19T10:21:07;47.40;18.30
51029;DHT22;37054;52.054;8.600;2022-08-19T10:23:35;47.70;17.60
51029;DHT22;37054;52.054;8.600;2022-08-19T10:26:01;47.70;17.40
51029;DHT22;37054;52.054;8.600;2022-08-19T10:28:29;47.90;17.10
51029;DHT22;37054;52.054;8.600;2022-08-19T10:30:54;47.60;17.00
51029;DHT22;37054;52.054;8.600;2022-08-19T10:33:20;47.00;17.00
51029;DHT22;37054;52.054;8.600;2022-08-19T10:35:45;46.50;17.50
51029;DHT22;37054;52.054;8.600;2022-08-19T10:38:11;45.80;17.70
51029;DHT22;37054;52.054;8.600;2022-08-19T10:40:37;45.30;18.30
51029;DHT22;37054;52.054;8.600;2022-08-19T10:43:05;45.40;18.50
51029;DHT22;37054;52.054;8.600;2022-08-19T10:45:31;45.40;18.40
51029;DHT22;37054;52.054;8.600;2022-08-19T10:47:56;45.50;18.40
51029;DHT22;37054;52.054;8.600;2022-08-19T10:50:22;45.80;18.50
51029;DHT22;37054;52.054;8.600;2022-08-19T10:53:07;46.20;18.50
51029;DHT22;37054;52.054;8.600;2022-08-19T10:55:33;46.70;18.00
51029;DHT22;37054;52.054;8.600;2022-08-19T10:58:18;46.90;17.50
51029;DHT22;37054;52.054;8.600;2022-08-19T11:00:52;47.10;17.50
51029;DHT22;37054;52.054;8.600;2022-08-19T11:03:18;46.80;17.50
51029;DHT22;37054;52.054;8.600;2022-08-19T11:05:43;46.30;17.50
51029;DHT22;37054;52.054;8.600;2022-08-19T11:08:14;45.40;17.70
51029;DHT22;37054;52.054;8.600;2022-08-19T11:10:42;44.80;18.10
51029;DHT22;37054;52.054;8.600;2022-08-19T11:13:11;44.80;18.20
51029;DHT22;37054;52.054;8.600;2022-08-19T11:15:36;45.10;18.30
51029;DHT22;37054;52.054;8.600;2022-08-19T11:18:02;45.40;18.10
51029;DHT22;37054;52.054;8.600;2022-08-19T11:20:28;45.70;17.90
51029;DHT22;37054;52.054;8.600;2022-08-19T11:22:57;45.90;18.00
51029;DHT22;37054;52.054;8.600;2022-08-19T11:25:23;46.40;17.90
51029;DHT22;37054;52.054;8.600;2022-08-19T11:27:48;46.50;17.00
51029;DHT22;37054;52.054;8.600;2022-08-19T11:30:16;45.70;17.10
51029;DHT22;37054;52.054;8.600;2022-08-19T11:32:41;45.30;17.60
51029;DHT22;37054;52.054;8.600;2022-08-19T11:35:07;45.30;17.80
51029;DHT22;37054;52.054;8.600;2022-08-19T11:37:33;45.30;17.30
51029;DHT22;37054;52.054;8.600;2022-08-19T11:40:03;44.80;16.70
51029;DHT22;37054;52.054;8.600;2022-08-19T11:42:31;44.80;17.10
51029;DHT22;37054;52.054;8.600;2022-08-19T11:45:15;45.30;17.30
51029;DHT22;37054;52.054;8.600;2022-08-19T11:47:41;45.90;17.30
51029;DHT22;37054;52.054;8.600;2022-08-19T11:50:07;46.40;17.20
51029;DHT22;37054;52.054;8.600;2022-08-19T11:52:33;46.90;16.80
51029;DHT22;37054;52.054;8.600;2022-08-19T11:54:58;47.20;16.60
51029;DHT22;37054;52.054;8.600;2022-08-19T11:57:24;47.50;16.50
51029;DHT22;37054;52.054;8.600;2022-08-19T11:59:50;47.70;16.30
51029;DHT22;37054;52.054;8.600;2022-08-19T12:02:16;47.80;16.10
51029;DHT22;37054;52.054;8.600;2022-08-19T12:05:08;48.00;16.00
51029;DHT22;37054;52.054;8.600;2022-08-19T12:19:30;47.00;15.50
51029;DHT22;37054;52.054;8.600;2022-08-19T12:21:58;46.60;15.80
51029;DHT22;37054;52.054;8.600;2022-08-19T12:24:26;46.10;16.00
51029;DHT22;37054;52.054;8.600;2022-08-19T12:26:51;45.90;16.10
51029;DHT22;37054;52.054;8.600;2022-08-19T12:29:17;45.80;16.50
51029;DHT22;37054;52.054;8.600;2022-08-19T12:31:42;45.60;16.80
51029;DHT22;37054;52.054;8.600;2022-08-19T12:34:08;45.50;16.90
51029;DHT22;37054;52.054;8.600;2022-08-19T12:36:33;45.40;16.80
51029;DHT22;37054;52.054;8.600;2022-08-19T12:38:59;45.10;16.60
51029;DHT22;37054;52.054;8.600;2022-08-19T12:41:25;44.90;17.00
51029;DHT22;37054;52.054;8.600;2022-08-19T12:43:50;44.90;17.00
51029;DHT22;37054;52.054;8.600;2022-08-19T12:46:17;44.80;17.10
51029;DHT22;37054;52.054;8.600;2022-08-19T12:48:43;45.00;17.50
51029;DHT22;37054;52.054;8.600;2022-08-19T12:51:12;45.20;17.50
51029;DHT22;37054;52.054;8.600;2022-08-19T12:53:41;45.30;16.90
51029;DHT22;37054;52.054;8.600;2022-08-19T12:56:08;45.10;16.70
51029;DHT22;37054;52.054;8.600;2022-08-19T12:58:34;44.90;16.90
51029;DHT22;37054;52.054;8.600;2022-08-19T13:01:33;44.60;16.90
51029;DHT22;37054;52.054;8.600;2022-08-19T13:03:56;43.90;17.20
51029;DHT22;37054;52.054;8.600;2022-08-19T13:06:21;43.80;17.60
51029;DHT22;37054;52.054;8.600;2022-08-19T13:08:47;43.90;17.90
51029;DHT22;37054;52.054;8.600;2022-08-19T13:11:15;43.90;18.00
51029;DHT22;37054;52.054;8.600;2022-08-19T13:13:42;43.40;18.30
51029;DHT22;37054;52.054;8.600;2022-08-19T13:16:25;43.10;18.70
51029;DHT22;37054;52.054;8.600;2022-08-19T13:18:53;42.80;18.90
51029;DHT22;37054;52.054;8.600;2022-08-19T13:21:19;42.00;19.40
51029;DHT22;37054;52.054;8.600;2022-08-19T13:23:45;41.40;19.90
51029;DHT22;37054;52.054;8.600;2022-08-19T13:26:13;41.40;20.10
51029;DHT22;37054;52.054;8.600;2022-08-19T13:28:40;41.50;20.20
51029;DHT22;37054;52.054;8.600;2022-08-19T13:31:34;41.40;20.10
51029;DHT22;37054;52.054;8.600;2022-08-19T13:34:20;41.20;20.50
51029;DHT22;37054;52.054;8.600;2022-08-19T13:36:51;40.80;20.70
51029;DHT22;37054;52.054;8.600;2022-08-19T13:39:17;40.60;20.90
51029;DHT22;37054;52.054;8.600;2022-08-19T13:41:43;40.20;20.80
51029;DHT22;37054;52.054;8.600;2022-08-19T13:44:14;40.00;21.10
51029;DHT22;37054;52.054;8.600;2022-08-19T13:46:41;39.70;21.10
51029;DHT22;37054;52.054;8.600;2022-08-19T13:49:13;39.20;21.20
51029;DHT22;37054;52.054;8.600;2022-08-19T13:51:40;38.80;21.60
51029;DHT22;37054;52.054;8.600;2022-08-19T13:54:07;38.50;21.90
51029;DHT22;37054;52.054;8.600;2022-08-19T13:56:34;38.30;22.10
51029;DHT22;37054;52.054;8.600;2022-08-19T13:58:59;37.90;22.40
51029;DHT22;37054;52.054;8.600;2022-08-19T14:01:25;37.70;22.80
51029;DHT22;37054;52.054;8.600;2022-08-19T14:03:51;37.50;23.10
51029;DHT22;37054;52.054;8.600;2022-08-19T14:06:18;37.30;23.30
51029;DHT22;37054;52.054;8.600;2022-08-19T14:08:44;37.20;23.40
51029;DHT22;37054;52.054;8.600;2022-08-19T14:11:09;37.00;23.40
51029;DHT22;37054;52.054;8.600;2022-08-19T14:13:55;36.90;23.40
51029;DHT22;37054;52.054;8.600;2022-08-19T14:16:32;36.70;23.50
51029;DHT22;37054;52.054;8.600;2022-08-19T14:18:58;36.70;23.60
51029;DHT22;37054;52.054;8.600;2022-08-19T14:21:43;36.50;23.70
51029;DHT22;37054;52.054;8.600;2022-08-19T14:24:12;36.50;23.80
51029;DHT22;37054;52.054;8.600;2022-08-19T14:26:38;36.50;23.90
51029;DHT22;37054;52.054;8.600;2022-08-19T14:29:09;36.50;23.90
51029;DHT22;37054;52.054;8.600;2022-08-19T14:31:40;36.50;24.10
51029;DHT22;37054;52.054;8.600;2022-08-19T14:34:08;36.40;24.30
51029;DHT22;37054;52.054;8.600;2022-08-19T14:36:36;36.30;24.20
51029;DHT22;37054;52.054;8.600;2022-08-19T14:39:02;36.20;24.50
51029;DHT22;37054;52.054;8.600;2022-08-19T14:41:28;36.20;24.80
51029;DHT22;37054;52.054;8.600;2022-08-19T14:43:55;36.20;25.00
51029;DHT22;37054;52.054;8.600;2022-08-19T14:46:22;36.10;24.70
51029;DHT22;37054;52.054;8.600;2022-08-19T14:48:48;36.00;24.70
51029;DHT22;37054;52.054;8.600;2022-08-19T14:51:14;35.90;24.90
51029;DHT22;37054;52.054;8.600;2022-08-19T14:53:40;35.80;25.10
51029;DHT22;37054;52.054;8.600;2022-08-19T14:56:08;35.80;25.20
51029;DHT22;37054;52.054;8.600;2022-08-19T14:58:34;35.70;25.30
51029;DHT22;37054;52.054;8.600;2022-08-19T15:01:00;35.70;25.40
51029;DHT22;37054;52.054;8.600;2022-08-19T15:03:26;35.80;25.40
51029;DHT22;37054;52.054;8.600;2022-08-19T15:05:52;35.80;25.20
51029;DHT22;37054;52.054;8.600;2022-08-19T15:08:18;35.80;25.20
51029;DHT22;37054;52.054;8.600;2022-08-19T15:10:43;35.70;25.20
51029;DHT22;37054;52.054;8.600;2022-08-19T15:13:09;35.60;25.20
51029;DHT22;37054;52.054;8.600;2022-08-19T15:15:34;35.50;25.30
51029;DHT22;37054;52.054;8.600;2022-08-19T15:18:00;35.60;25.10
51029;DHT22;37054;52.054;8.600;2022-08-19T15:20:27;35.50;25.20
51029;DHT22;37054;52.054;8.600;2022-08-19T15:22:54;35.50;25.10
51029;DHT22;37054;52.054;8.600;2022-08-19T15:25:25;35.50;25.00
51029;DHT22;37054;52.054;8.600;2022-08-19T15:27:52;35.60;24.90
51029;DHT22;37054;52.054;8.600;2022-08-19T15:30:21;35.60;25.00
51029;DHT22;37054;52.054;8.600;2022-08-19T15:32:48;35.70;25.10
51029;DHT22;37054;52.054;8.600;2022-08-19T15:35:14;35.80;25.20
51029;DHT22;37054;52.054;8.600;2022-08-19T15:37:39;36.00;25.10
51029;DHT22;37054;52.054;8.600;2022-08-19T15:40:05;36.10;24.80
51029;DHT22;37054;52.054;8.600;2022-08-19T15:42:34;36.30;24.80
51029;DHT22;37054;52.054;8.600;2022-08-19T15:45:00;36.30;24.90
51029;DHT22;37054;52.054;8.600;2022-08-19T15:47:28;36.40;25.00
51029;DHT22;37054;52.054;8.600;2022-08-19T15:49:53;36.60;24.90
51029;DHT22;37054;52.054;8.600;2022-08-19T15:52:20;36.60;24.60
51029;DHT22;37054;52.054;8.600;2022-08-19T15:54:46;36.60;24.60
51029;DHT22;37054;52.054;8.600;2022-08-19T15:57:11;36.50;24.50
51029;DHT22;37054;52.054;8.600;2022-08-19T15:59:48;36.40;24.70
51029;DHT22;37054;52.054;8.600;2022-08-19T16:02:33;36.30;24.70
51029;DHT22;37054;52.054;8.600;2022-08-19T16:05:20;36.10;24.90
51029;DHT22;37054;52.054;8.600;2022-08-19T16:08:04;35.90;25.10
51029;DHT22;37054;52.054;8.600;2022-08-19T16:10:30;35.80;25.30
51029;DHT22;37054;52.054;8.600;2022-08-19T16:12:56;35.70;25.30
51029;DHT22;37054;52.054;8.600;2022-08-19T16:15:23;35.60;25.30
51029;DHT22;37054;52.054;8.600;2022-08-19T16:17:51;35.50;25.40
51029;DHT22;37054;52.054;8.600;2022-08-19T16:20:19;35.40;25.60
51029;DHT22;37054;52.054;8.600;2022-08-19T16:22:46;35.20;25.80
51029;DHT22;37054;52.054;8.600;2022-08-19T16:25:12;35.20;25.90
51029;DHT22;37054;52.054;8.600;2022-08-19T16:27:38;35.20;26.00
51029;DHT22;37054;52.054;8.600;2022-08-19T16:30:05;35.10;26.00
51029;DHT22;37054;52.054;8.600;2022-08-19T16:32:31;35.10;26.10
51029;DHT22;37054;52.054;8.600;2022-08-19T16:34:57;35.10;26.10